This is the latest recevied weather packets stored in our database for station/object KB0BDN-13. If no packets are shown the sender has not sent any weather packets the latest 10 day(s).
| Time | Temp. | Humidity | Pressure | Rain* | Wind** | Luminosity | Snow |
|---|---|---|---|---|---|---|---|
| 1788273994 | 20.56° C | 72% | 1003.9 hPa | 0 mm | - | - | - |
| 1788273853 | 20.56° C | 72% | 1004.1 hPa | 0 mm | - | - | - |
| 1788273094 | 20° C | 75% | 1004.1 hPa | 0 mm | - | - | - |
| 1788272194 | 19.44° C | 78% | 1004.1 hPa | 0 mm | - | - | - |
| 1788271294 | 18.33° C | 83% | 1004.1 hPa | 0 mm | - | - | - |
| 1788271272 | 18.33° C | 83% | 1004.2 hPa | 0 mm | - | - | - |
| 1788271152 | 18.33° C | 83% | 1004.2 hPa | 0 mm | - | - | - |
| 1788270394 | 17.22° C | 86% | 1004.2 hPa | 0 mm | - | - | - |
| 1788270253 | 17.22° C | 86% | 1004.2 hPa | 0 mm | - | - | - |
| 1788269494 | 16.67° C | 88% | 1004.2 hPa | 0 mm | - | - | - |
| 1788269351 | 16.67° C | 88% | 1004.2 hPa | 0 mm | - | - | - |
| 1788268594 | 16.11° C | 89% | 1004.2 hPa | 0 mm | - | - | - |
| 1788267694 | 15.56° C | 92% | 1004.3 hPa | 0 mm | - | - | - |
| 1788267553 | 15.56° C | 92% | 1004.4 hPa | 0 mm | - | - | - |
| 1788266794 | 15° C | 94% | 1004.4 hPa | 0 mm | - | - | - |
| 1788266651 | 15° C | 94% | 1004.6 hPa | 0 mm | - | - | - |
| 1788265894 | 14.44° C | 95% | 1004.6 hPa | 0 mm | - | - | - |
| 1788265753 | 14.44° C | 95% | 1004.3 hPa | 0 mm | - | - | - |
| 1788264994 | 13.89° C | 95% | 1004.3 hPa | 0 mm | - | - | - |
| 1788264094 | 13.89° C | 95% | 1004.2 hPa | 0 mm | - | - | - |
| 1788263951 | 13.89° C | 95% | 1004.3 hPa | 0 mm | - | - | - |
| 1788263194 | 13.89° C | 95% | 1004.3 hPa | 0 mm | - | - | - |
| 1788262294 | 13.89° C | 95% | 1004.1 hPa | 0 mm | - | - | - |
| 1788261394 | 13.89° C | 94% | 1004.1 hPa | 0 mm | - | - | - |
| 1788260494 | 13.89° C | 94% | 1004 hPa | 0 mm | - | - | - |
* Rain latest hour (hover to see other rain measurements)
** Current wind speed in m/s (hover to see current wind gust speed)